^^
Your Local Weather - Clay, NY Station Historical Data
Daily Summary for May 18, 2017 Units:  Metric    English   Both
« Previous Day
Next Day »
Daily Weekly Monthly Yearly Custom
  High: Low: Average:
Temperature: 31.2 °C 16.2 °C 23.5 °C
Dew Point: 18.2 °C 13.2 °C 15.7 °C
Humidity: 88% 40% 65%
Wind Speed: 9.7km/h 0km/h 3.7km/h
Wind Gust: 20.9km/h - -
Wind- - SW
Pressure: 1009.4 hPa 1004.6 hPa -
Precipitation: 1.27 mm    
Historical Graphs
 
 
Tabular Data for May 18, 2017
Time Temperature Dew Point Pressure Wind Wind Speed Wind Gust Humidity Rainfall Rate (Hourly) solar
00:02 18.7 °C 15.2 °C 1009 hPa Calm     80% 0 mm 0 W/m2
00:08 18.6 °C 15.1 °C 1008.7 hPa Calm     80% 0 mm 0 W/m2
00:13 18.5 °C 15.2 °C 1008.7 hPa Calm   1.6 km/h 81% 0 mm 0 W/m2
00:19 18.4 °C 15.3 °C 1008.7 hPa Calm     82% 0 mm 0 W/m2
00:25 18.3 °C 15.2 °C 1008.7 hPa Calm     82% 0 mm 0 W/m2
00:31 18.2 °C 15.1 °C 1008.7 hPa Calm     82% 0 mm 0 W/m2
00:38 18.1 °C 15.2 °C 1008.7 hPa Calm     83% 0 mm 0 W/m2
00:43 18 °C 15.1 °C 1008.4 hPa Calm     83% 0 mm 0 W/m2
00:49 17.9 °C 14.9 °C 1008.7 hPa Calm     83% 0 mm 0 W/m2
00:55 17.8 °C 15.1 °C 1008.7 hPa Calm     84% 0 mm 0 W/m2
01:02 17.7 °C 15.2 °C 1008.7 hPa Calm     85% 0 mm 0 W/m2
01:08 17.7 °C 15.2 °C 1008.7 hPa Calm     85% 0 mm 0 W/m2
01:13 17.6 °C 15.1 °C 1008.4 hPa Calm     85% 0 mm 0 W/m2
01:19 17.6 °C 15.2 °C 1008.4 hPa Calm     86% 0 mm 0 W/m2
01:25 17.6 °C 15.2 °C 1008.4 hPa Calm     86% 0 mm 0 W/m2
01:32 17.6 °C 15.4 °C 1008.4 hPa Calm     87% 0 mm 0 W/m2
01:38 17.5 °C 15.3 °C 1008.4 hPa Calm     87% 0 mm 0 W/m2
01:43 17.4 °C 15.3 °C 1008.4 hPa Calm     87% 0 mm 0 W/m2
01:49 17.4 °C 15.2 °C 1008.4 hPa Calm     87% 0 mm 0 W/m2
01:55 17.3 °C 15.2 °C 1008.4 hPa Calm     87% 0 mm 0 W/m2
02:02 17.3 °C 15.2 °C 1008.4 hPa Calm     87% 0 mm 0 W/m2
02:08 17.4 °C 15.4 °C 1008.4 hPa Calm     88% 0 mm 0 W/m2
02:13 17.4 °C 15.4 °C 1008.4 hPa Calm     88% 0 mm 0 W/m2
02:19 17.4 °C 15.4 °C 1008.4 hPa Calm     88% 0 mm 0 W/m2
02:25 17.3 °C 15.2 °C 1008.4 hPa Calm     87% 0 mm 0 W/m2
02:31 17.3 °C 15.1 °C 1008.4 hPa Calm     87% 0 mm 0 W/m2
02:38 17.2 °C 15.1 °C 1008.7 hPa Calm     87% 0 mm 0 W/m2
02:43 17.2 °C 15.1 °C 1008.7 hPa Calm     87% 0 mm 0 W/m2
02:49 17.2 °C 15 °C 1009 hPa Calm     87% 0 mm 0 W/m2
02:55 17.2 °C 15 °C 1009 hPa Calm     87% 0 mm 0 W/m2
03:02 17.1 °C 14.9 °C 1009 hPa Calm     87% 0 mm 0 W/m2
03:08 16.9 °C 14.8 °C 1009 hPa Calm     87% 0 mm 0 W/m2
03:13 16.8 °C 14.7 °C 1009 hPa Calm     87% 0 mm 0 W/m2
03:19 16.8 °C 14.6 °C 1009 hPa Calm   1.6 km/h 87% 0 mm 0 W/m2
03:25 16.9 °C 14.7 °C 1009 hPa Calm   1.6 km/h 87% 0 mm 0 W/m2
03:31 16.9 °C 14.6 °C 1009 hPa Calm     86% 0 mm 0 W/m2
03:38 17.2 °C 14.8 °C 1009 hPa Calm     86% 0 mm 0 W/m2
03:43 17.3 °C 14.7 °C 1009 hPa Calm   1.6 km/h 85% 0 mm 0 W/m2
03:49 17.4 °C 14.5 °C 1009 hPa Calm     83% 0 mm 0 W/m2
03:55 17.6 °C 14.4 °C 1009 hPa Calm     82% 0 mm 0 W/m2
04:02 17.4 °C 14.5 °C 1009 hPa Calm     83% 0 mm 0 W/m2
04:08 17.3 °C 14.4 °C 1009 hPa Calm     83% 0 mm 0 W/m2
04:13 17.1 °C 14 °C 1009 hPa Calm     82% 0 mm 0 W/m2
04:19 17.1 °C 14.2 °C 1009 hPa Calm     83% 0 mm 0 W/m2
04:25 16.9 °C 14.1 °C 1009 hPa Calm     83% 0 mm 0 W/m2
04:32 16.8 °C 14.1 °C 1009 hPa Calm     84% 0 mm 0 W/m2
04:38 16.7 °C 13.8 °C 1009 hPa Calm     83% 0 mm 0 W/m2
04:49 16.6 °C 13.7 °C 1009 hPa Calm     83% 0 mm 0 W/m2
04:55 16.6 °C 13.7 °C 1009 hPa Calm     83% 0 mm 0 W/m2
05:02 16.5 °C 13.6 °C 1009 hPa Calm     83% 0 mm 0 W/m2
05:08 16.4 °C 13.6 °C 1009.4 hPa Calm     83% 0 mm 0 W/m2
05:13 16.4 °C 13.6 °C 1009.4 hPa Calm     83% 0 mm 0 W/m2
05:19 16.4 °C 13.6 °C 1009.4 hPa Calm     83% 0 mm 0 W/m2
05:25 16.4 °C 13.7 °C 1009.4 hPa Calm     84% 0 mm 0 W/m2
05:31 16.4 °C 13.7 °C 1009.4 hPa Calm     84% 0 mm 0 W/m2
05:38 16.3 °C 13.4 °C 1009.4 hPa Calm     83% 0 mm 0 W/m2
05:43 16.3 °C 13.4 °C 1009.4 hPa Calm     83% 0 mm 0 W/m2
05:49 16.3 °C 13.4 °C 1009.4 hPa Calm     83% 0 mm 5 W/m2
05:55 16.2 °C 13.3 °C 1009.4 hPa Calm     83% 0 mm 7 W/m2
06:02 16.3 °C 13.4 °C 1009.4 hPa Calm     83% 0 mm 9 W/m2
06:08 16.3 °C 13.2 °C 1009.4 hPa Calm     82% 0 mm 12 W/m2
06:13 16.3 °C 13.2 °C 1009.4 hPa Calm     82% 0 mm 19 W/m2
06:19 16.3 °C 13.3 °C 1009.4 hPa Calm     82% 0 mm 30 W/m2
06:25 16.5 °C 13.4 °C 1009.4 hPa Calm     82% 0 mm 44 W/m2
06:32 16.8 °C 13.7 °C 1009.4 hPa Calm     82% 0 mm 98 W/m2
06:38 17.4 °C 13.9 °C 1009.4 hPa Calm     80% 0 mm 109 W/m2
06:43 18.2 °C 14.4 °C 1009.4 hPa Calm     79% 0 mm 127 W/m2
06:49 18.7 °C 14.6 °C 1009.4 hPa Calm     77% 0 mm 139 W/m2
06:55 19.2 °C 14.7 °C 1009.4 hPa Calm     75% 0 mm 144 W/m2
07:02 19.4 °C 14.9 °C 1009.4 hPa Calm     75% 0 mm 171 W/m2
07:08 19.9 °C 14.9 °C 1009.4 hPa Calm     73% 0 mm 192 W/m2
07:13 20.2 °C 14.9 °C 1009.4 hPa Calm     72% 0 mm 204 W/m2
07:19 20.9 °C 14.8 °C 1009.4 hPa Calm     68% 0 mm 220 W/m2
07:25 21.8 °C 14.9 °C 1009.4 hPa Calm   4.8 km/h 65% 0 mm 236 W/m2
07:32 22.5 °C 15.1 °C 1009.4 hPa Calm     63% 0 mm 250 W/m2
07:38 23.1 °C 14.9 °C 1009.4 hPa Calm     60% 0 mm 272 W/m2
07:43 23.6 °C 14.3 °C 1009.4 hPa Calm   3.2 km/h 56% 0 mm 281 W/m2
07:49 24.1 °C 14.4 °C 1009.4 hPa South 1.6 km/h 3.2 km/h 55% 0 mm 306 W/m2
07:55 24.6 °C 14.3 °C 1009.4 hPa SW 3.2 km/h 6.4 km/h 53% 0 mm 322 W/m2
08:02 25 °C 14.4 °C 1009 hPa South 3.2 km/h 3.2 km/h 52% 0 mm 348 W/m2
08:13 25.6 °C 14.1 °C 1009 hPa West 4.8 km/h 4.8 km/h 49% 0 mm 383 W/m2
08:19 25.9 °C 14.4 °C 1009 hPa SW 3.2 km/h 3.2 km/h 49% 0 mm 392 W/m2
08:25 26.2 °C 13.9 °C 1009 hPa South 3.2 km/h 4.8 km/h 47% 0 mm 417 W/m2
08:32 26.4 °C 14.2 °C 1009 hPa SSW 6.4 km/h 9.7 km/h 47% 0 mm 439 W/m2
08:38 26.7 °C 14.2 °C 1009 hPa South 6.4 km/h 9.7 km/h 46% 0 mm 457 W/m2
08:43 26.9 °C 13.9 °C 1009 hPa SSW 4.8 km/h 6.4 km/h 45% 0 mm 473 W/m2
08:50 27.1 °C 14.5 °C 1008.7 hPa South 4.8 km/h 20.9 km/h 46% 0 mm 492 W/m2
08:55 27.3 °C 14.3 °C 1008.7 hPa SSE 6.4 km/h 20.9 km/h 45% 0 mm 512 W/m2
09:02 27.3 °C 14.7 °C 1008.7 hPa SW 8 km/h 11.3 km/h 46% 0 mm 527 W/m2
09:08 27.3 °C 14 °C 1008.7 hPa South 8 km/h 16.1 km/h 44% 0 mm 547 W/m2
09:13 27.4 °C 14.4 °C 1008.4 hPa SSE 9.7 km/h 12.9 km/h 45% 0 mm 566 W/m2
09:19 27.7 °C 15 °C 1008.7 hPa West 6.4 km/h 8 km/h 46% 0 mm 584 W/m2
09:25 27.7 °C 14.7 °C 1008.4 hPa SW 8 km/h 16.1 km/h 45% 0 mm 603 W/m2
09:31 27.8 °C 14.8 °C 1008.7 hPa SW 8 km/h 14.5 km/h 45% 0 mm 619 W/m2
09:38 27.9 °C 14.9 °C 1008.4 hPa SW 8 km/h 14.5 km/h 45% 0 mm 642 W/m2
09:43 28.1 °C 14.7 °C 1008.4 hPa SSW 6.4 km/h 14.5 km/h 44% 0 mm 603 W/m2
09:49 28.3 °C 15.2 °C 1008.4 hPa WSW 8 km/h 8 km/h 45% 0 mm 666 W/m2
09:55 28.4 °C 15 °C 1008.4 hPa SW 6.4 km/h 16.1 km/h 44% 0 mm 684 W/m2
10:02 28.3 °C 14.6 °C 1008.4 hPa SSW 9.7 km/h 9.7 km/h 43% 0 mm 705 W/m2
10:08 28.3 °C 14.9 °C 1008.4 hPa West 9.7 km/h 14.5 km/h 44% 0 mm 722 W/m2
10:13 28.5 °C 14.3 °C 1008.4 hPa SSW 8 km/h 9.7 km/h 42% 0 mm 749 W/m2
10:19 28.6 °C 16.5 °C 1008.4 hPa West 8 km/h 9.7 km/h 48% 0 mm 775 W/m2
10:25 29.1 °C 14.8 °C 1008 hPa South 6.4 km/h 9.7 km/h 42% 0 mm 773 W/m2
10:32 28.7 °C 14.8 °C 1008 hPa SW 6.4 km/h 8 km/h 43% 0 mm 369 W/m2
10:38 28.7 °C 15.3 °C 1008 hPa West 8 km/h 12.9 km/h 44% 0 mm 821 W/m2
10:43 28.3 °C 14.9 °C 1008 hPa SW 8 km/h 14.5 km/h 44% 0 mm 341 W/m2
10:49 28.5 °C 15.4 °C 1008.4 hPa SSW 6.4 km/h 6.4 km/h 45% 0 mm 812 W/m2
10:55 28.8 °C 15.3 °C 1008 hPa WSW 4.8 km/h 6.4 km/h 44% 0 mm 670 W/m2
11:02 28.9 °C 15.8 °C 1008 hPa South 4.8 km/h 4.8 km/h 45% 0 mm 861 W/m2
11:08 29.2 °C 16.3 °C 1008.4 hPa WSW 4.8 km/h 6.4 km/h 46% 0 mm 599 W/m2
11:13 28.9 °C 15.4 °C 1008.4 hPa SW 4.8 km/h 6.4 km/h 44% 0 mm 911 W/m2
11:22 28.9 °C 15.4 °C 1008.4 hPa SW 4.8 km/h 4.8 km/h 44% 0 mm 320 W/m2
11:28 28.4 °C 15.3 °C 1008.4 hPa WSW 4.8 km/h 6.4 km/h 45% 0 mm 221 W/m2
11:33 28.9 °C 15.4 °C 1008 hPa WSW 4.8 km/h 19.3 km/h 44% 0 mm 626 W/m2
11:39 28.9 °C 15.4 °C 1008.4 hPa SSW 6.4 km/h 6.4 km/h 44% 0 mm 926 W/m2
11:45 28.9 °C 15.1 °C 1008.4 hPa SSW 6.4 km/h 12.9 km/h 43% 0 mm 691 W/m2
11:52 28.9 °C 15.1 °C 1008.4 hPa WSW 8 km/h 14.5 km/h 43% 0 mm 907 W/m2
11:58 29.2 °C 16.1 °C 1008.4 hPa SW 8 km/h 14.5 km/h 45% 0 mm 896 W/m2
12:03 29.2 °C 15.3 °C 1008 hPa SW 6.4 km/h 8 km/h 43% 0 mm 900 W/m2
12:09 29.5 °C 15.2 °C 1008.4 hPa WSW 6.4 km/h 14.5 km/h 42% 0 mm 891 W/m2
12:16 29.3 °C 15.1 °C 1008 hPa WSW 8 km/h 17.7 km/h 42% 0 mm 865 W/m2
12:21 29.4 °C 16.3 °C 1008 hPa WSW 8 km/h 8 km/h 45% 0 mm 928 W/m2
12:28 29.6 °C 16.1 °C 1008 hPa WSW 4.8 km/h 9.7 km/h 44% 0 mm 916 W/m2
12:33 29.6 °C 15.3 °C 1008 hPa WSW 6.4 km/h 8 km/h 42% 0 mm 689 W/m2
12:39 29.4 °C 15.9 °C 1008 hPa WSW 6.4 km/h 9.7 km/h 44% 0 mm 967 W/m2
12:45 29.8 °C 16.3 °C 1007.7 hPa WSW 6.4 km/h 9.7 km/h 44% 0 mm 942 W/m2
12:52 30.1 °C 15 °C 1007.7 hPa WNW 8 km/h 11.3 km/h 40% 0 mm 904 W/m2
12:58 29.7 °C 15.1 °C 1007.3 hPa SW 9.7 km/h 11.3 km/h 41% 0 mm 911 W/m2
13:03 29.9 °C 15.3 °C 1007.3 hPa West 6.4 km/h 9.7 km/h 41% 0 mm 905 W/m2
13:09 30.2 °C 17.6 °C 1007 hPa WSW 4.8 km/h 4.8 km/h 47% 0 mm 916 W/m2
13:15 29.9 °C 15.6 °C 1007 hPa SSW 6.4 km/h 9.7 km/h 42% 0 mm 958 W/m2
13:21 30.1 °C 15.8 °C 1007 hPa SSW 9.7 km/h 9.7 km/h 42% 0 mm 213 W/m2
13:28 29.7 °C 15.1 °C 1007 hPa West 8 km/h 9.7 km/h 41% 0 mm 1121 W/m2
13:33 30.1 °C 15.3 °C 1007 hPa WSW 6.4 km/h 11.3 km/h 41% 0 mm 1121 W/m2
13:39 30.4 °C 16.4 °C 1007 hPa SSW 8 km/h 12.9 km/h 43% 0 mm 1041 W/m2
13:45 30.4 °C 15.7 °C 1007 hPa SW 9.7 km/h 16.1 km/h 41% 0 mm 1074 W/m2
13:52 30.3 °C 15.2 °C 1007.3 hPa SSW 8 km/h 9.7 km/h 40% 0 mm 441 W/m2
13:58 30 °C 15.7 °C 1007 hPa WSW 8 km/h 9.7 km/h 42% 0 mm 327 W/m2
14:03 29.7 °C 15.8 °C 1007 hPa SW 9.7 km/h 9.7 km/h 43% 0 mm 541 W/m2
14:09 30.5 °C 16.9 °C 1006.7 hPa SW 9.7 km/h 11.3 km/h 44% 0 mm 1109 W/m2
14:15 30.9 °C 16.1 °C 1006.7 hPa SSW 8 km/h 11.3 km/h 41% 0 mm 1072 W/m2
14:21 30.8 °C 16.1 °C 1006.3 hPa SSW 6.4 km/h 8 km/h 41% 0 mm 904 W/m2
14:28 30.8 °C 15.6 °C 1006.3 hPa SW 8 km/h 8 km/h 40% 0 mm 891 W/m2
14:33 30.3 °C 15.6 °C 1006.3 hPa South 9.7 km/h 17.7 km/h 41% 0 mm 288 W/m2
14:39 30.3 °C 15.6 °C 1006 hPa WNW 9.7 km/h 9.7 km/h 41% 0 mm 432 W/m2
14:45 30.8 °C 16.1 °C 1006 hPa SW 8 km/h 9.7 km/h 41% 0 mm 283 W/m2
14:52 30.6 °C 15.8 °C 1006 hPa West 6.4 km/h 12.9 km/h 41% 0 mm 308 W/m2
14:58 30.4 °C 16.1 °C 1006 hPa SW 6.4 km/h 12.9 km/h 42% 0 mm 216 W/m2
15:03 30.4 °C 16.1 °C 1005.6 hPa South 8 km/h 8 km/h 42% 0 mm 469 W/m2
15:09 30.8 °C 16.1 °C 1005.6 hPa WSW 6.4 km/h 8 km/h 41% 0 mm 564 W/m2
15:15 31.1 °C 16.6 °C 1005.6 hPa SSW 6.4 km/h 17.7 km/h 42% 0 mm 438 W/m2
15:22 31.1 °C 17.7 °C 1005.6 hPa West 9.7 km/h 17.7 km/h 45% 0 mm 889 W/m2
15:28 31.2 °C 16.3 °C 1005.3 hPa WSW 8 km/h 17.7 km/h 41% 0 mm 179 W/m2
15:33 30.7 °C 15.9 °C 1005.3 hPa SW 8 km/h 9.7 km/h 41% 0 mm 260 W/m2
15:39 30.6 °C 16.2 °C 1005.3 hPa SW 8 km/h 8 km/h 42% 0 mm 274 W/m2
15:45 30.6 °C 15.8 °C 1005.3 hPa West 8 km/h 11.3 km/h 41% 0 mm 116 W/m2
15:52 30.4 °C 15.7 °C 1005.3 hPa SW 8 km/h 12.9 km/h 41% 0 mm 478 W/m2
15:58 30.5 °C 15.8 °C 1005 hPa WSW 6.4 km/h 12.9 km/h 41% 0 mm 181 W/m2
16:03 30.3 °C 15.2 °C 1004.6 hPa South 6.4 km/h 8 km/h 40% 0 mm 279 W/m2
16:09 30.3 °C 15.9 °C 1004.6 hPa SSW 6.4 km/h 6.4 km/h 42% 0 mm 202 W/m2
16:15 30.2 °C 15.8 °C 1004.6 hPa SW 4.8 km/h 6.4 km/h 42% 0 mm 202 W/m2
16:22 30.1 °C 15.7 °C 1004.6 hPa West 6.4 km/h 8 km/h 42% 0 mm 156 W/m2
16:28 29.9 °C 15.9 °C 1004.6 hPa West 4.8 km/h 8 km/h 43% 0 mm 95 W/m2
16:33 29.8 °C 15.8 °C 1004.6 hPa WSW 4.8 km/h 6.4 km/h 43% 0 mm 84 W/m2
16:39 29.6 °C 15.7 °C 1004.6 hPa WSW 6.4 km/h 6.4 km/h 43% 0 mm 76 W/m2
16:45 29.4 °C 15.9 °C 1004.6 hPa SW 4.8 km/h 6.4 km/h 44% 0 mm 93 W/m2
16:53 29.2 °C 15.7 °C 1005 hPa SSW 4.8 km/h 6.4 km/h 44% 0 mm 105 W/m2
16:59 29 °C 15.9 °C 1004.6 hPa SW 4.8 km/h 4.8 km/h 45% 0 mm 62 W/m2
17:05 28.8 °C 16 °C 1005 hPa SW 3.2 km/h 6.4 km/h 46% 0 mm 25 W/m2
17:11 28.5 °C 16.1 °C 1004.6 hPa SW 3.2 km/h 6.4 km/h 47% 0 mm 11 W/m2
17:18 28.3 °C 15.6 °C 1004.6 hPa WSW 3.2 km/h 6.4 km/h 46% 0 mm 9 W/m2
17:23 28.2 °C 16.1 °C 1005 hPa West 3.2 km/h 9.7 km/h 48% 0 mm 7 W/m2
17:29 27.9 °C 15.6 °C 1005.3 hPa SSW 4.8 km/h 8 km/h 47% 0 mm 0 W/m2
17:35 26.9 °C 16.5 °C 1005.6 hPa West 8 km/h 17.7 km/h 53% 5.84 mm 0 W/m2
17:42 24.1 °C 17.1 °C 1006 hPa WSW 9.7 km/h 11.3 km/h 65% 5.08 mm 5 W/m2
17:48 22.8 °C 16.8 °C 1005.6 hPa SW 6.4 km/h 11.3 km/h 69% 1.78 mm 5 W/m2
17:53 22.4 °C 16.9 °C 1005.6 hPa SSW 3.2 km/h 11.3 km/h 71% 1.02 mm 7 W/m2
17:59 22.4 °C 16.9 °C 1005.3 hPa SSW 4.8 km/h 4.8 km/h 71% 0 mm 12 W/m2
18:05 22.3 °C 17.1 °C 1006 hPa WNW 3.2 km/h 4.8 km/h 72% 0 mm 18 W/m2
18:11 22.1 °C 17.3 °C 1006.7 hPa NNW 3.2 km/h 6.4 km/h 74% 0 mm 40 W/m2
18:18 21.9 °C 17.4 °C 1006.7 hPa NNW 1.6 km/h 6.4 km/h 76% 0 mm 74 W/m2
18:24 21.9 °C 17.3 °C 1006.3 hPa West 3.2 km/h 3.2 km/h 75% 0 mm 93 W/m2
18:29 22.2 °C 17.1 °C 1006.3 hPa WNW 1.6 km/h 3.2 km/h 73% 0 mm 79 W/m2
18:35 22.3 °C 17.3 °C 1006.3 hPa West 1.6 km/h 3.2 km/h 73% 0 mm 163 W/m2
18:42 22.7 °C 17.3 °C 1005.6 hPa WNW 3.2 km/h 4.8 km/h 72% 0 mm 209 W/m2
18:48 22.9 °C 16.9 °C 1005.6 hPa SW 1.6 km/h 4.8 km/h 69% 0 mm 151 W/m2
18:53 23.2 °C 17.4 °C 1005.6 hPa Calm   1.6 km/h 70% 0 mm 93 W/m2
18:59 23.2 °C 17.2 °C 1005.6 hPa SSW 1.6 km/h 3.2 km/h 69% 0 mm 65 W/m2
19:05 23 °C 17.9 °C 1005.6 hPa South 3.2 km/h 6.4 km/h 73% 0 mm 51 W/m2
19:11 22.8 °C 17.7 °C 1005.6 hPa South 3.2 km/h 3.2 km/h 73% 0 mm 46 W/m2
19:18 22.5 °C 17.8 °C 1005.6 hPa South 3.2 km/h 3.2 km/h 75% 0 mm 42 W/m2
19:23 22.3 °C 18.1 °C 1005.6 hPa SSE 3.2 km/h 4.8 km/h 77% 0 mm 39 W/m2
19:29 22.2 °C 18.2 °C 1005.6 hPa South 3.2 km/h 6.4 km/h 78% 0 mm 35 W/m2
19:35 22.1 °C 18.1 °C 1005.6 hPa SSE 3.2 km/h 6.4 km/h 78% 0 mm 33 W/m2
19:42 21.9 °C 18.1 °C 1005.6 hPa SSW 3.2 km/h 3.2 km/h 79% 0 mm 26 W/m2
19:48 21.8 °C 17.8 °C 1005.6 hPa South 3.2 km/h 6.4 km/h 78% 0 mm 23 W/m2
19:53 21.8 °C 18 °C 1005.6 hPa South 3.2 km/h 3.2 km/h 79% 0 mm 19 W/m2
19:59 21.8 °C 18 °C 1005.6 hPa South 3.2 km/h 3.2 km/h 79% 0 mm 16 W/m2
20:05 21.7 °C 17.9 °C 1005.6 hPa South 3.2 km/h 3.2 km/h 79% 0 mm 12 W/m2
20:11 21.5 °C 17.7 °C 1005.6 hPa South 3.2 km/h 3.2 km/h 79% 0 mm 9 W/m2
20:18 21.4 °C 17.7 °C 1005.6 hPa South 1.6 km/h 3.2 km/h 79% 0 mm 5 W/m2
20:23 21.4 °C 17.7 °C 1005.6 hPa South 1.6 km/h 3.2 km/h 79% 0 mm 0 W/m2
20:29 21.3 °C 17.6 °C 1005.6 hPa South 1.6 km/h 6.4 km/h 79% 0 mm 0 W/m2
20:35 21.3 °C 17.5 °C 1006 hPa South 1.6 km/h 6.4 km/h 79% 0 mm 0 W/m2
20:41 21.2 °C 17.4 °C 1006 hPa South 1.6 km/h 3.2 km/h 79% 0 mm 0 W/m2
20:47 21.1 °C 17.3 °C 1005.6 hPa South 1.6 km/h 6.4 km/h 79% 0 mm 0 W/m2
20:53 21.1 °C 17.3 °C 1005.6 hPa South 1.6 km/h 1.6 km/h 79% 0 mm 0 W/m2
20:59 21.2 °C 17.2 °C 1005.6 hPa South 1.6 km/h 4.8 km/h 78% 0 mm 0 W/m2
21:05 21.3 °C 17.3 °C 1005.6 hPa South 1.6 km/h 4.8 km/h 78% 0 mm 0 W/m2
21:12 21.4 °C 17.2 °C 1005.6 hPa South 1.6 km/h 1.6 km/h 77% 0 mm 0 W/m2
21:18 21.3 °C 17.1 °C 1005.6 hPa Calm   1.6 km/h 77% 0 mm 0 W/m2
21:23 21.2 °C 17 °C 1005.6 hPa Calm     77% 0 mm 0 W/m2
21:29 20.8 °C 17.2 °C 1005.6 hPa Calm     80% 0 mm 0 W/m2
21:35 20.3 °C 17.1 °C 1005.6 hPa Calm     82% 0 mm 0 W/m2
21:42 19.7 °C 16.9 °C 1005.6 hPa Calm     84% 0 mm 0 W/m2
21:48 19.4 °C 17 °C 1005.6 hPa Calm     86% 0 mm 0 W/m2
21:53 19.3 °C 16.9 °C 1005.6 hPa Calm     86% 0 mm 0 W/m2
21:59 20.1 °C 17.4 °C 1005.6 hPa SW 1.6 km/h 3.2 km/h 85% 0 mm 0 W/m2
22:05 21.2 °C 17.4 °C 1005.6 hPa SW 3.2 km/h 8 km/h 79% 0 mm 0 W/m2
22:11 21.9 °C 17.3 °C 1005.6 hPa West 4.8 km/h 4.8 km/h 75% 0 mm 0 W/m2
22:18 22.4 °C 17.3 °C 1005.6 hPa SW 4.8 km/h 6.4 km/h 73% 0 mm 0 W/m2
22:23 22.6 °C 17.3 °C 1005.6 hPa SW 4.8 km/h 9.7 km/h 72% 0 mm 0 W/m2
22:29 22.7 °C 17.3 °C 1005.6 hPa SW 6.4 km/h 6.4 km/h 72% 0 mm 0 W/m2
22:35 22.7 °C 17.2 °C 1005.6 hPa SW 4.8 km/h 9.7 km/h 71% 0 mm 0 W/m2
22:41 23 °C 17 °C 1005.3 hPa SW 8 km/h 11.3 km/h 69% 0 mm 0 W/m2
22:48 23.1 °C 17.1 °C 1005.3 hPa SW 8 km/h 11.3 km/h 69% 0 mm 0 W/m2
22:53 23.1 °C 16.9 °C 1005.3 hPa SW 6.4 km/h 6.4 km/h 68% 0 mm 0 W/m2
22:59 23.2 °C 16.9 °C 1005.3 hPa SSW 6.4 km/h 6.4 km/h 68% 0 mm 0 W/m2
23:05 23.3 °C 16.8 °C 1005.3 hPa SSW 8 km/h 9.7 km/h 67% 0 mm 0 W/m2
23:12 23.3 °C 16.8 °C 1005.3 hPa SSW 8 km/h 8 km/h 67% 0 mm 0 W/m2
23:18 23.4 °C 16.7 °C 1005.3 hPa WSW 8 km/h 12.9 km/h 66% 0 mm 0 W/m2
23:23 23.5 °C 16.8 °C 1005.3 hPa WSW 8 km/h 8 km/h 66% 0 mm 0 W/m2
23:29 23.6 °C 16.6 °C 1005.3 hPa WSW 6.4 km/h 6.4 km/h 65% 0 mm 0 W/m2
23:35 23.6 °C 16.7 °C 1005.6 hPa SSW 6.4 km/h 9.7 km/h 65% 0 mm 0 W/m2
23:42 23.5 °C 16.8 °C 1005.6 hPa West 6.4 km/h 6.4 km/h 66% 0 mm 0 W/m2
23:48 22.9 °C 16.9 °C 1006.7 hPa NNW 6.4 km/h 14.5 km/h 69% 0 mm 0 W/m2
23:53 22.3 °C 17 °C 1007 hPa NW 6.4 km/h 6.4 km/h 72% 0 mm 0 W/m2
23:59 21.9 °C 17.1 °C 1007 hPa NW 4.8 km/h 4.8 km/h 74% 0 mm 0 W/m2
Country Meadow, Clay, NY, USA
Compliments of Weather Underground - 2 mb